• Join FlightAware (Why Join?)
  • Login
  • US Flag 
12:27AM EDT


 

Airport Tracker/Info


-or-


 

Live Flight TrackerFlight Track Log ✈ EJM826 ✈ 01-Jun-2014 ✈ TXKF / BDA - KHOU

Flight Track Log - Related Links

Times and Time Zones

All times are in EDT time to prevent confusion due to time zone crossing. See the EJM826 flight status page for this flight to view local times or setup timezone preferences in your user account.

Time Position Orientation Groundspeed Altitude Reporting Facility
EDT Latitude Longitude Course Direction KTS MPH feet Rate Location/Type
07:46AM 32.3696 -64.7112 279° West 179 206 1,100  Level FlightAware ADS-B
07:46AM 32.3706 -64.7275 273° West 187 215 1,700 2,760 Climbing FlightAware ADS-B
07:46AM 32.3717 -64.7573 271° West 193 222 3,200 3,000 Climbing FlightAware ADS-B
07:47AM 32.3719 -64.7723 273° West 198 228 3,800 2,460 Climbing FlightAware ADS-B
07:47AM 32.3725 -64.7878 273° West 204 235 4,400 2,460 Climbing FlightAware ADS-B
07:47AM 32.3733 -64.8042 274° West 216 249 5,000 2,220 Climbing FlightAware ADS-B
07:47AM 32.3739 -64.8224 271° West 230 265 5,500 2,040 Climbing FlightAware ADS-B
07:48AM 32.3739 -64.8419 270° West 244 281 6,000 2,340 Climbing FlightAware ADS-B
07:48AM 32.3736 -64.8608 269° West 250 288 6,600 2,640 Climbing FlightAware ADS-B
07:48AM 32.3731 -64.8801 270° West 254 292 7,300 2,760 Climbing FlightAware ADS-B
07:49AM 32.3733 -64.9202 271° West 260 299 8,600 2,700 Climbing FlightAware ADS-B
07:49AM 32.3738 -64.9467 272° West 260 299 9,500 2,400 Climbing FlightAware ADS-B
07:50AM 32.3758 -65.0410 270° West 280 322 12,000 2,460 Climbing FlightAware ADS-B
07:51AM 32.3750 -65.1075 270° West 273 314 14,000 2,460 Climbing FlightAware ADS-B
07:51AM 32.3757 -65.1575 272° West 277 319 15,300 2,040 Climbing FlightAware ADS-B
07:52AM 32.3781 -65.2075 272° West 273 314 16,400 2,340 Climbing New York Center
07:53AM 32.3758 -65.2983 268° West 273 314 18,900 2,100 Climbing New York Center
07:54AM 32.3775 -65.3769 271° West 273 314 20,600 1,800 Climbing New York Center
07:55AM 32.3758 -65.4800 269° West 279 321 22,500 1,740 Climbing New York Center
07:56AM 32.3756 -65.5683 270° West 289 333 24,100 1,680 Climbing New York Center
07:57AM 32.3800 -65.6739 273° West 294 338 25,900 1,560 Climbing New York Center
07:58AM 32.3803 -65.7744 270° West 300 345 27,200 1,260 Climbing New York Center
07:59AM 32.3758 -65.8681 267° West 311 358 28,500 1,260 Climbing New York Center
08:00AM 32.3783 -65.9858 271° West 328 377 29,800 1,200 Climbing New York Center
08:01AM 32.3767 -66.0964 269° West 334 384 30,900 960 Climbing New York Center
08:02AM 32.3783 -66.1994 271° West 339 390 31,800 900 Climbing New York Center
08:03AM 32.3769 -66.3272 269° West 362 417 32,800 1,080 Climbing New York Center
08:04AM 32.3769 -66.4350 270° West 368 423 34,000 1,140 Climbing New York Center
08:05AM 32.3817 -66.5675 272° West 368 423 35,100 840 Climbing New York Center
08:06AM 32.3772 -66.6856 267° West 368 423 35,700 600 Climbing New York Center
08:07AM 32.3747 -66.7961 268° West 368 423 36,400 720 Climbing New York Center
08:08AM 32.3772 -66.9336 271° West 373 429 37,200 780 Climbing New York Center
08:09AM 32.3769 -67.0539 270° West 373 429 38,000 660 Climbing New York Center
08:10AM 32.3742 -67.1669 268° West 378 435 38,600 600 Climbing New York Center
08:11AM 32.3719 -67.3019 269° West 388 447 39,300 600 Climbing New York Center
08:12AM 32.3711 -67.4272 270° West 383 441 39,900 300 Climbing New York Center
08:13AM 32.3744 -67.5425 272° West 390 449 40,000  Climbing New York Center
08:14AM 32.3678 -67.6878 267° West 390 449 40,000  Level New York Center
08:15AM 32.3622 -67.8033 267° West 403 464 40,000  Level New York Center
08:16AM 32.3572 -67.9336 267° West 403 464 40,000  Level New York Center
08:17AM 32.3539 -68.0614 268° West 403 464 40,000  Level New York Center
08:21AM 32.3500 -68.2333 265° West 412 474 40,000  Level New York Oceanic (ODAPS)
09:00AM 31.8000 -73.8500 276° West 415 478 40,000  Level New York Oceanic (ODAPS)
09:11AM 31.9147 -75.3256 274° West 463 533 40,000  Level New York Center
09:12AM 31.9220 -75.4676 275° West 415 478 40,000  Level FlightAware Transoceanic
09:12AM 31.9175 -75.4672 271° West 464 534 40,000  Level New York Center
09:13AM 31.9312 -75.6025 275° West 415 478 40,000  Level FlightAware Transoceanic
09:13AM 31.9308 -75.5950 277° West 433 498 40,000  Level New York Center
09:14AM 31.9403 -75.7375 275° West 415 478 40,000  Level FlightAware Transoceanic
09:14AM 31.9378 -75.7272 274° West 426 490 40,000  Level New York Center
09:15AM 31.9493 -75.8726 274° West 415 478 40,000  Level FlightAware Transoceanic
09:15AM 31.9511 -75.8553 277° West 408 470 40,000  Level New York Center
09:16AM 31.9575 -75.9922 273° West 415 478 40,000  Level New York Center
09:17AM 31.9658 -76.1322 274° West 415 478 40,000  Level New York Center
09:19AM 31.9808 -76.3492 275° West 424 488 40,000  Level Jacksonville Center
09:20AM 31.9878 -76.4858 273° West 417 480 40,000  Level Jacksonville Center
09:21AM 31.9928 -76.6275 272° West 422 486 40,000  Level Jacksonville Center
09:22AM 32.0158 -76.7606 282° West 422 486 40,000  Level Jacksonville Center
09:23AM 32.0306 -76.8919 278° West 422 486 40,000  Level Jacksonville Center
09:24AM 32.0367 -77.0236 273° West 422 486 40,000  Level Jacksonville Center
09:25AM 32.0431 -77.1631 273° West 422 486 40,000  Level Jacksonville Center
09:26AM 32.0533 -77.2994 275° West 422 486 40,000  Level Jacksonville Center
09:27AM 32.0594 -77.4364 273° West 422 486 40,000  Level Jacksonville Center
09:28AM 32.0675 -77.5756 274° West 422 486 40,000  Level Jacksonville Center
09:29AM 32.0731 -77.7125 273° West 422 486 40,000  Level Jacksonville Center
09:30AM 32.0808 -77.8494 274° West 424 488 40,000  Level Jacksonville Center
09:31AM 32.0861 -77.9889 273° West 424 488 40,000  Level Jacksonville Center
09:32AM 32.0936 -78.1258 274° West 424 488 40,000  Level Jacksonville Center
09:33AM 32.0972 -78.2800 272° West 427 491 40,000  Level Jacksonville Center
09:34AM 32.1042 -78.4144 274° West 427 491 40,000  Level Jacksonville Center
09:35AM 32.1108 -78.5514 273° West 417 480 40,000  Level Jacksonville Center
09:36AM 32.1197 -78.6883 274° West 422 486 40,000  Level Jacksonville Center
09:37AM 32.1264 -78.8281 273° West 422 486 40,000  Level Jacksonville Center
09:38AM 32.1306 -78.9650 272° West 422 486 40,000  Level Jacksonville Center
09:39AM 32.1372 -79.1072 273° West 427 491 40,000  Level Jacksonville Center
09:40AM 32.1433 -79.2492 273° West 427 491 40,000  Level Jacksonville Center
09:41AM 32.1494 -79.3886 273° West 427 491 40,000  Level Jacksonville Center
09:42AM 32.1533 -79.5308 272° West 433 498 40,000  Level Jacksonville Center
09:47AM 32.1468 -79.3006 268° West 434 499 40,000  Level FlightAware ADS-B
09:53AM 32.1362 -81.1045 268° West 437 503 40,000  Level FlightAware ADS-B
09:54AM 32.1319 -81.2356 268° West 438 504 40,000  Level FlightAware ADS-B
09:54AM 32.1292 -81.3200 268° West 439 505 40,000  Level FlightAware ADS-B
09:55AM 32.1263 -81.4026 268° West 437 503 40,000  Level FlightAware ADS-B
09:56AM 32.1223 -81.5194 268° West 435 501 40,000  Level FlightAware ADS-B
09:56AM 32.1184 -81.6271 268° West 433 498 40,000  Level FlightAware ADS-B
09:58AM 32.1144 -81.7975 268° West 426 490 40,000  Level Atlanta Center
09:59AM 32.1086 -81.9375 267° West 426 490 40,000  Level Atlanta Center
10:00AM 32.1025 -82.0775 267° West 426 490 40,000  Level Atlanta Center
10:01AM 32.0922 -82.2172 265° West 426 490 40,000  Level Atlanta Center
10:02AM 32.0919 -82.3594 270° West 426 490 40,000  Level Atlanta Center
10:03AM 32.0814 -82.4994 265° West 426 490 40,000  Level Atlanta Center
10:04AM 32.0789 -82.6392 269° West 426 490 40,000  Level Atlanta Center
10:05AM 32.0719 -82.7789 267° West 432 497 40,000  Level Atlanta Center
10:06AM 32.0650 -82.9214 267° West 432 497 40,000  Level Atlanta Center
10:07AM 32.0578 -83.0636 267° West 437 503 40,000  Level Atlanta Center
10:08AM 32.0528 -83.2033 268° West 437 503 40,000  Level Atlanta Center
10:09AM 32.0453 -83.3431 266° West 437 503 40,000  Level Atlanta Center
10:10AM 32.0397 -83.4850 267° West 437 503 40,000  Level Atlanta Center
10:11AM 32.0319 -83.6272 266° West 437 503 40,000  Level Atlanta Center
10:12AM 32.0239 -83.7669 266° West 437 503 40,000  Level Atlanta Center
10:13AM 32.0178 -83.9261 267° West 444 511 40,000  Level Atlanta Center
10:14AM 32.0075 -84.0658 265° West 444 511 40,000  Level Atlanta Center
10:15AM 31.9992 -84.2103 266° West 444 511 40,000  Level Atlanta Center
10:16AM 31.9903 -84.3572 266° West 444 511 40,000  Level Atlanta Center
10:17AM 31.9817 -84.5017 266° West 444 511 40,000  Level Atlanta Center
10:18AM 31.9747 -84.6461 267° West 444 511 40,000  Level Atlanta Center
10:19AM 31.9656 -84.7928 266° West 444 511 40,000  Level Atlanta Center
10:20AM 31.9561 -84.9397 266° West 444 511 40,000  Level Atlanta Center
10:21AM 31.9467 -85.0839 266° West 444 511 40,000  Level Atlanta Center
10:22AM 31.9353 -85.2061 264° West 439 505 40,000  Level Atlanta Center
10:23AM 31.9256 -85.3506 266° West 439 505 40,000  Level Atlanta Center
10:24AM 31.9175 -85.4947 266° West 444 511 40,000  Level Atlanta Center
10:25AM 31.9075 -85.6339 265° West 439 505 40,000  Level Atlanta Center
10:26AM 31.8969 -85.7978 266° West 449 517 40,000  Level Atlanta Center
10:27AM 31.8886 -85.9419 266° West 455 524 40,000  Level Atlanta Center
10:28AM 31.8733 -86.1564 265° West 441 507 40,000  Level Houston Center
10:29AM 31.8614 -86.2983 264° West 441 507 40,000  Level Houston Center
10:30AM 31.8522 -86.4400 266° West 439 505 40,000  Level Houston Center
10:31AM 31.8406 -86.5794 264° West 435 501 40,000  Level Houston Center
10:32AM 31.8292 -86.7436 265° West 434 499 40,000  Level Houston Center
10:33AM 31.8189 -86.8831 265° West 433 498 40,000  Level Houston Center
10:34AM 31.8078 -87.0236 265° West 433 498 40,000  Level Houston Center
10:35AM 31.7967 -87.1656 265° West 435 501 40,000  Level Houston Center
10:36AM 31.7842 -87.3072 264° West 436 502 40,000  Level Houston Center
10:38AM 31.7731 -87.4497 265° West 438 504 40,000  Level Houston Center
10:39AM 31.7586 -87.6228 264° West 442 509 40,000  Level Houston Center
10:40AM 31.7475 -87.7656 265° West 444 511 40,000  Level Houston Center
10:41AM 31.7356 -87.9086 264° West 443 510 40,000  Level Houston Center
10:42AM 31.7225 -88.0500 264° West 443 510 40,000  Level Houston Center
10:43AM 31.7106 -88.1914 264° West 441 507 40,000  Level Houston Center
10:44AM 31.6983 -88.3311 264° West 439 505 40,000  Level Houston Center
10:45AM 31.6833 -88.5008 264° West 439 505 40,000  Level Houston Center
10:46AM 31.6711 -88.6428 264° West 440 506 40,000  Level Houston Center
10:47AM 31.6572 -88.7850 263° West 441 507 40,000  Level Houston Center
10:48AM 31.6444 -88.9286 264° West 443 510 40,000  Level Houston Center
10:49AM 31.6311 -89.0731 264° West 448 516 40,000  Level Houston Center
10:50AM 31.6169 -89.2167 263° West 447 514 40,000  Level Houston Center
10:51AM 31.6003 -89.3889 264° West 447 514 40,000  Level Houston Center
10:52AM 31.5856 -89.5342 263° West 447 514 40,000  Level Houston Center
10:53AM 31.5725 -89.6750 264° West 446 513 40,000  Level Houston Center
10:54AM 31.5567 -89.8194 263° West 446 513 40,000  Level Houston Center
10:55AM 31.5428 -89.9619 264° West 446 513 40,000  Level Houston Center
10:56AM 31.5283 -90.1078 263° West 447 514 40,000  Level Houston Center
10:57AM 31.5094 -90.2844 263° West 454 522 40,000  Level Houston Center
10:58AM 31.4936 -90.4314 263° West 456 525 40,000 -60 Level Houston Center
10:59AM 31.4775 -90.5772 263° West 455 524 39,900  Descending Houston Center
11:00AM 31.4625 -90.7211 263° West 452 520 40,000  Climbing Houston Center
11:01AM 31.4469 -90.8658 263° West 451 519 40,000  Level Houston Center
11:02AM 31.4314 -91.0114 263° West 451 519 40,000  Level Houston Center
11:03AM 31.4117 -91.1744 262° West 451 519 40,000  Level Houston Center
11:04AM 31.3947 -91.3197 262° West 451 519 40,000  Level Houston Center
11:05AM 31.3783 -91.4636 262° West 450 518 40,000  Level Houston Center
11:06AM 31.3592 -91.6381 263° West 450 518 40,000  Level Houston Center
11:07AM 31.3422 -91.7828 262° West 451 519 40,000  Level Houston Center
11:08AM 31.3242 -91.9297 262° West 453 521 40,000 -60 Level Houston Center
11:09AM 31.3072 -92.0883 263° West 456 525 39,900  Descending Houston Center
11:11AM 31.2894 -92.2317 262° West 451 519 40,000  Climbing Houston Center
11:17AM 30.9525 -93.0528 238° Southwest 472 543 40,000  Level FlightAware ADS-B (KHOU)
11:17AM 30.9200 -93.1113 238° Southwest 472 543 40,000  Level FlightAware ADS-B (KHOU)
11:18AM 30.8823 -93.1790 238° Southwest 472 543 40,000  Level FlightAware ADS-B (KHOU)
11:18AM 30.8786 -93.1858 238° Southwest 471 542 40,000  Level FlightAware ADS-B (KHOU)
11:19AM 30.8139 -93.3017 238° Southwest 469 540 40,000  Level FlightAware ADS-B (KHOU)
11:19AM 30.7758 -93.3699 237° Southwest 466 536 40,000  Level FlightAware ADS-B (KHOU)
11:20AM 30.7412 -93.4319 238° Southwest 463 533 40,000  Level FlightAware ADS-B (KHOU)
11:20AM 30.7052 -93.4959 238° Southwest 461 531 40,000  Level FlightAware ADS-B (KHOU)
11:21AM 30.6717 -93.5555 237° Southwest 461 531 40,000  Level FlightAware ADS-B (KHOU)
11:21AM 30.6370 -93.6172 237° Southwest 460 529 40,000  Level FlightAware ADS-B (KHOU)
11:22AM 30.6032 -93.6773 237° Southwest 460 529 40,000 -840 Level FlightAware ADS-B (KHOU)
11:22AM 30.5590 -93.7557 237° Southwest 480 552 39,100 -2,280 Descending FlightAware ADS-B (KHOU)
11:23AM 30.5219 -93.8213 237° Southwest 497 572 37,600 -3,000 Descending FlightAware ADS-B (KHOU)
11:23AM 30.4840 -93.8880 237° Southwest 496 571 36,100 -3,000 Descending FlightAware ADS-B (KHOU)
11:24AM 30.4465 -93.9542 237° Southwest 488 562 34,600 -3,000 Descending FlightAware ADS-B (KHOU)
11:24AM 30.4093 -94.0197 237° Southwest 480 552 33,100 -3,000 Descending FlightAware ADS-B (KHOU)
11:25AM 30.3734 -94.0827 237° Southwest 466 536 31,600 -3,000 Descending FlightAware ADS-B (KHOU)
11:25AM 30.3385 -94.1439 237° Southwest 454 522 30,200 -2,880 Descending FlightAware ADS-B (KHOU)
11:26AM 30.3036 -94.2051 237° Southwest 442 509 28,800 -2,760 Descending FlightAware ADS-B (KHOU)
11:26AM 30.2702 -94.2635 237° Southwest 431 496 27,400 -2,700 Descending FlightAware ADS-B (KHOU)
11:27AM 30.2393 -94.3200 243° Southwest 419 482 26,100 -2,640 Descending FlightAware ADS-B (KHOU)
11:27AM 30.2286 -94.3476 249° West 413 475 25,400 -2,460 Descending FlightAware ADS-B (KCXO)
11:28AM 30.2070 -94.4255 253° West 403 464 24,000 -2,520 Descending FlightAware ADS-B (KCXO)
11:28AM 30.1900 -94.4880 253° West 399 459 22,700 -2,520 Descending FlightAware ADS-B (KCXO)
11:29AM 30.1746 -94.5450 253° West 394 453 21,500 -2,460 Descending FlightAware ADS-B (KCXO)
11:29AM 30.1586 -94.6045 253° West 389 448 20,200 -2,400 Descending FlightAware ADS-B (KCXO)
11:30AM 30.1413 -94.6687 253° West 384 442 19,100 -2,220 Descending FlightAware ADS-B (KCXO)
11:30AM 30.1270 -94.7215 253° West 379 436 18,000 -2,340 Descending FlightAware ADS-B (KHOU)
11:30AM 30.1152 -94.7655 253° West 373 429 17,000 -2,460 Descending FlightAware ADS-B (KHOU)
11:31AM 30.0950 -94.8401 253° West 365 420 15,600 -2,340 Descending FlightAware ADS-B (KCXO)
11:32AM 30.0800 -94.8951 253° West 359 413 14,500 -1,980 Descending FlightAware ADS-B (KCXO)
11:32AM 30.0633 -94.9568 253° West 340 391 13,500 -1,500 Descending FlightAware ADS-B (KHOU)
11:33AM 30.0495 -95.0073 253° West 320 368 12,900 -1,200 Descending FlightAware ADS-B (KHOU)
11:33AM 30.0366 -95.0549 253° West 318 366 12,300 -1,260 Descending FlightAware ADS-B (KHOU)
11:34AM 30.0215 -95.1100 253° West 317 365 11,600 -1,200 Descending FlightAware ADS-B (KHOU)
11:34AM 30.0154 -95.1293 245° Southwest 314 361 11,400 -960 Descending FlightAware ADS-B (KCXO)
11:34AM 30.0092 -95.1410 234° Southwest 313 360 11,300 -1,020 Descending FlightAware ADS-B (KHOU)
11:34AM 30.0000 -95.1520 222° Southwest 311 358 11,100 -1,440 Descending FlightAware ADS-B (KHOU)
11:34AM 29.9872 -95.1615 209° Southwest 309 356 10,800 -1,500 Descending FlightAware ADS-B (KHOU)
11:35AM 29.9732 -95.1667 195° South 304 350 10,600 -1,140 Descending FlightAware ADS-B (KHOU)
11:35AM 29.9449 -95.1751 195° South 295 339 10,200 -1,140 Descending FlightAware ADS-B (KCXO)
11:35AM 29.9244 -95.1812 195° South 292 336 9,900 -1,260 Descending FlightAware ADS-B (KCXO)
11:35AM 29.9055 -95.1869 195° South 291 335 9,600 -1,260 Descending FlightAware ADS-B (KHOU)
11:36AM 29.8858 -95.1927 195° South 293 337 9,300 -1,200 Descending FlightAware ADS-B (KHOU)
11:36AM 29.8652 -95.1988 195° South 294 338 9,000 -1,200 Descending FlightAware ADS-B (KCXO)
11:36AM 29.8455 -95.2047 196° South 292 336 8,700 -900 Descending FlightAware ADS-B (KHOU)
11:36AM 29.8400 -95.2065 196° South 292 336 8,700 -1,020 Level FlightAware ADS-B (KHOU)
11:36AM 29.8272 -95.2106 196° South 289 333 8,400 -1,200 Descending FlightAware ADS-B (KCXO)
11:37AM 29.8018 -95.2187 196° South 287 330 8,100 -960 Descending FlightAware ADS-B (KHOU)
11:37AM 29.7831 -95.2246 196° South 284 327 7,900 -1,020 Descending FlightAware ADS-B (KHOU)
11:37AM 29.7631 -95.2309 196° South 282 325 7,600 -1,260 Descending FlightAware ADS-B (KHOU)
11:38AM 29.7390 -95.2383 194° South 277 319 7,200 -1,080 Descending FlightAware ADS-B (KHOU)
11:38AM 29.7330 -95.2397 192° South 275 316 7,200 -600 Level FlightAware ADS-B (KHOU)
11:38AM 29.7145 -95.2422 184° South 265 305 7,000 -420 Descending FlightAware ADS-B (KHOU)
11:38AM 29.6966 -95.2441 196° South 248 285 7,000 -300 Level FlightAware ADS-B (KHOU)
11:38AM 29.6915 -95.2465 205° Southwest 245 282 6,900 -600 Descending FlightAware ADS-B (KHOU)
11:38AM 29.6870 -95.2498 219° Southwest 240 276 6,900  Level FlightAware ADS-B (KHOU)
11:38AM 29.6830 -95.2545 231° Southwest 237 273 6,900  Level FlightAware ADS-B (KHOU)
11:38AM 29.6798 -95.2602 240° Southwest 236 272 6,900  Level FlightAware ADS-B (KHOU)
11:39AM 29.6777 -95.2657 248° West 236 272 6,900  Level FlightAware ADS-B (KHOU)
11:39AM 29.6758 -95.2713 249° West 235 270 6,900 -300 Level FlightAware ADS-B (KCXO)
11:39AM 29.6585 -95.3198 249° West 235 270 6,700 -660 Descending FlightAware ADS-B (KCXO)
11:39AM 29.6563 -95.3261 248° West 247 284 6,500 -2,220 Descending FlightAware ADS-B (KCXO)
11:40AM 29.6437 -95.3617 248° West 255 293 5,500 -2,100 Descending FlightAware ADS-B (KHOU)
11:40AM 29.6389 -95.3729 238° Southwest 255 293 5,200 -1,920 Descending FlightAware ADS-B (KHOU)
11:40AM 29.6350 -95.3791 231° Southwest 254 292 5,000 -2,220 Descending FlightAware ADS-B (KHOU)
11:40AM 29.6229 -95.3944 228° Southwest 256 295 4,500 -2,040 Descending FlightAware ADS-B (KHOU)
11:41AM 29.6108 -95.4097 229° Southwest 255 293 4,000 -1,800 Descending FlightAware ADS-B (KHOU)
11:41AM 29.6028 -95.4199 228° Southwest 255 293 3,600 -1,740 Descending FlightAware ADS-B (KHOU)
11:41AM 29.5888 -95.4374 228° Southwest 254 292 3,200 -1,200 Descending FlightAware ADS-B (KHOU)
11:41AM 29.5768 -95.4524 228° Southwest 242 278 3,000 -300 Descending FlightAware ADS-B (KHOU)
11:42AM 29.5556 -95.4778 223° Southwest 215 247 3,000  Level FlightAware ADS-B (KHOU)
11:42AM 29.5313 -95.4777 223° Southwest 215 247 3,000  Level FlightAware ADS-B (KHOU)
11:42AM 29.5267 -95.4725 130° Southeast 203 234 3,000 -540 Level FlightAware ADS-B (KHOU)
11:43AM 29.5150 -95.4368 98° East 204 235 2,600 -900 Descending FlightAware ADS-B (KHOU)
11:43AM 29.5205 -95.4140 53° Northeast 205 236 2,200 -1,200 Descending FlightAware ADS-B (KHOU)
11:43AM 29.5238 -95.4096 47° Northeast 207 238 2,100 -600 Descending FlightAware ADS-B (KHOU)
11:44AM 29.5343 -95.3982 41° Northeast 205 236 2,000 -180 Descending FlightAware ADS-B (KHOU)
11:44AM 29.5486 -95.3838 41° Northeast 206 237 2,000  Level FlightAware ADS-B (KHOU)
11:44AM 29.5627 -95.3690 43° Northeast 204 235 2,000 -360 Level FlightAware ADS-B (KHOU)
11:45AM 29.5722 -95.3587 42° Northeast 192 221 1,800 -780 Descending FlightAware ADS-B (KHOU)
11:45AM 29.5821 -95.3482 43° Northeast 185 213 1,600 -1,020 Descending FlightAware ADS-B (KHOU)
11:45AM 29.5914 -95.3380 43° Northeast 174 200 1,300 -1,020 Descending FlightAware ADS-B (KHOU)
11:45AM 29.5997 -95.3288 44° Northeast 160 184 1,100 -600 Descending FlightAware ADS-B (KHOU)
11:46AM 29.6071 -95.3206 44° Northeast 144 166 1,000 -660 Descending FlightAware ADS-B (KHOU)
11:46AM 29.6140 -95.3133 43° Northeast 132 152 800 -840 Descending FlightAware ADS-B (KHOU)
11:46AM 29.6185 -95.3081 45° Northeast 129 148 600 -780 Descending FlightAware ADS-B (KHOU)
11:46AM 29.6264 -95.2995 43° Northeast 125 144 400 -600 Descending FlightAware ADS-B (KHOU)
11:47AM 29.6328 -95.2923 44° Northeast 129 148 300 -480 Descending FlightAware ADS-B (KHOU)